Time;durP1;ratioP1;P1;durP2;ratioP2;P2;SDS_P1;SDS_P2;PMS_P1;PMS_P2;Temp;Humidity;BMP_temperature;BMP_pressure;BME280_temperature;BME280_humidity;BME280_pressure;Samples;Min_cycle;Max_cycle;Signal;HPM_P1;HPM_P2
2022/09/23 00:04:51;;;;;;;2.97;1.03;;;;;;;18.78;57.84;96830.47;10555404;27;20050;-29
2022/09/23 00:09:51;;;;;;;1.05;0.75;;;;;;;18.86;57.59;96841.47;10587304;27;20092;-28
2022/09/23 00:14:52;;;;;;;2.20;0.67;;;;;;;18.84;57.41;96842.31;10586660;27;20039;-28
2022/09/23 00:19:54;;;;;;;1.95;0.65;;;;;;;18.82;57.65;96837.22;10588380;27;20040;-27
2022/09/23 00:24:54;;;;;;;0.88;0.65;;;;;;;18.81;57.56;96829.59;10584662;27;20032;-28
2022/09/23 00:29:54;;;;;;;1.97;0.80;;;;;;;18.81;57.45;96832.13;10582070;27;20032;-29
2022/09/23 00:34:55;;;;;;;1.10;0.80;;;;;;;18.81;57.34;96832.13;10584101;27;20342;-28
2022/09/23 00:39:55;;;;;;;1.17;0.70;;;;;;;18.78;57.52;96819.47;10596967;27;20115;-29
2022/09/23 00:44:58;;;;;;;0.85;0.60;;;;;;;18.80;57.55;96825.38;10587576;27;20031;-28
2022/09/23 00:50:08;;;;;;;2.60;0.80;;;;;;;18.80;57.81;96822.84;10590316;27;20111;-28
2022/09/23 00:55:15;;;;;;;2.60;0.73;;;;;;;18.86;58.08;96805.94;10587098;27;20512;-28
2022/09/23 01:00:15;;;;;;;1.48;0.70;;;;;;;18.87;57.75;96807.63;10590043;27;20537;-28
2022/09/23 01:05:16;;;;;;;1.10;0.70;;;;;;;18.81;57.71;96802.56;10586625;27;20034;-28
2022/09/23 01:10:17;;;;;;;1.73;0.77;;;;;;;18.84;57.39;96802.53;10580414;27;20329;-30
2022/09/23 01:15:22;;;;;;;0.82;0.82;;;;;;;18.83;57.31;96802.56;10591539;28;20060;-28
2022/09/23 01:20:50;;;;;;;1.10;0.70;;;;;;;18.80;57.40;96794.94;10584645;28;20513;-29
2022/09/23 01:26:28;;;;;;;1.38;0.80;;;;;;;18.80;57.52;96792.41;10574228;28;20024;-30
2022/09/23 01:31:28;;;;;;;;;;;;;;;18.79;57.45;96793.25;10585480;28;20108;-28
2022/09/23 01:36:38;;;;;;;1.13;0.70;;;;;;;18.74;57.38;96787.34;10583991;28;20435;-28
2022/09/23 01:42:17;;;;;;;1.08;0.70;;;;;;;18.74;57.48;96780.56;10588968;28;20038;-28
2022/09/23 01:47:29;;;;;;;1.13;0.52;;;;;;;18.74;57.36;96789.88;10550162;28;20125;-28
2022/09/23 01:52:46;;;;;;;1.08;0.60;;;;;;;18.77;58.05;96775.47;10580557;28;20134;-27
2022/09/23 01:57:55;;;;;;;1.30;0.70;;;;;;;18.83;57.84;96767.88;10586345;28;20114;-28
2022/09/23 02:03:18;;;;;;;1.30;0.77;;;;;;;18.83;57.38;96764.53;10567711;28;20031;-28
2022/09/23 02:08:28;;;;;;;0.60;0.50;;;;;;;18.81;57.39;96767.03;10583162;28;20040;-28
2022/09/23 02:13:40;;;;;;;1.77;0.80;;;;;;;18.79;57.40;96770.41;10582802;28;20031;-30
2022/09/23 02:18:48;;;;;;;0.93;0.60;;;;;;;18.78;57.35;96771.28;10586182;27;20590;-28
2022/09/23 02:23:53;;;;;;;1.98;0.70;;;;;;;18.73;57.46;96770.41;10597343;27;20038;-29
2022/09/23 02:29:06;;;;;;;3.15;0.90;;;;;;;18.74;57.32;96774.66;10588035;27;20095;-28
2022/09/23 02:34:25;;;;;;;0.65;0.50;;;;;;;18.71;57.28;96767.03;10593796;27;20039;-28
2022/09/23 02:39:37;;;;;;;1.92;0.60;;;;;;;18.73;57.18;96765.34;10593603;27;20037;-28
2022/09/23 02:44:37;;;;;;;2.20;0.70;;;;;;;18.72;57.17;96766.19;10593422;27;20034;-28
2022/09/23 02:49:38;;;;;;;0.73;0.50;;;;;;;18.72;57.32;96771.25;10595080;27;20114;-30
2022/09/23 02:54:39;;;;;;;1.90;0.73;;;;;;;18.79;57.66;96763.66;10595657;27;20053;-28
2022/09/23 02:59:42;;;;;;;1.02;0.52;;;;;;;18.82;57.66;96757.75;10589205;27;20300;-28
2022/09/23 03:04:57;;;;;;;1.15;0.55;;;;;;;18.81;57.54;96758.56;10589342;27;20402;-28
2022/09/23 03:10:16;;;;;;;0.75;0.60;;;;;;;18.78;57.25;96750.97;10582937;27;20039;-28
2022/09/23 03:15:22;;;;;;;1.52;0.90;;;;;;;18.78;57.07;96756.06;10593412;27;20028;-28
2022/09/23 03:20:33;;;;;;;0.68;0.40;;;;;;;18.73;57.37;96748.44;10593979;27;20176;-28
2022/09/23 03:25:37;;;;;;;1.05;0.80;;;;;;;18.77;57.18;96739.16;10579076;27;20036;-28
2022/09/23 03:30:39;;;;;;;1.63;0.52;;;;;;;18.72;57.23;96741.69;10590799;27;20038;-28
2022/09/23 03:41:16;;;;;;;0.65;0.50;;;;;;;18.67;57.42;96742.53;10591715;27;20437;-29
2022/09/23 03:46:17;;;;;;;1.27;0.70;;;;;;;18.68;57.21;96744.22;10581595;27;20076;-29
2022/09/23 03:51:22;;;;;;;1.13;0.60;;;;;;;18.67;57.29;96740.84;10590963;27;20105;-29
2022/09/23 03:56:23;;;;;;;3.17;0.70;;;;;;;18.77;57.59;96739.16;10575360;27;20031;-30
2022/09/23 04:01:23;;;;;;;1.03;0.57;;;;;;;18.77;57.57;96744.22;10595406;27;20048;-29
2022/09/23 04:06:24;;;;;;;0.80;0.50;;;;;;;18.78;57.31;96740.84;10577889;27;20027;-29
2022/09/23 04:11:24;;;;;;;1.50;0.70;;;;;;;18.73;57.48;96737.44;10582518;27;20032;-29
2022/09/23 04:16:25;;;;;;;1.20;0.70;;;;;;;18.74;57.33;96729.84;10590321;27;20115;-29
2022/09/23 04:21:25;;;;;;;0.85;0.50;;;;;;;18.76;57.40;96732.38;10591707;27;20045;-29
2022/09/23 04:26:26;;;;;;;0.77;0.50;;;;;;;18.74;57.36;96739.16;10583273;27;20030;-29
2022/09/23 04:31:27;;;;;;;5.93;1.63;;;;;;;18.73;57.29;96732.38;10584969;27;20474;-29
2022/09/23 04:36:30;;;;;;;1.38;1.25;;;;;;;18.83;56.92;96739.97;10590145;27;20423;-29
2022/09/23 04:41:31;;;;;;;3.10;0.68;;;;;;;18.90;56.50;96736.59;10588573;27;20046;-29
2022/09/23 04:46:31;;;;;;;2.10;0.52;;;;;;;18.89;56.61;96731.50;10574056;27;20027;-29
2022/09/23 04:51:32;;;;;;;5.10;1.13;;;;;;;18.90;56.37;96736.59;10588049;27;20176;-30
2022/09/23 04:56:32;;;;;;;2.47;1.05;;;;;;;18.94;55.75;96738.28;10582661;27;20035;-29
2022/09/23 05:01:33;;;;;;;5.83;1.63;;;;;;;18.95;56.15;96747.59;10589486;27;20127;-29
2022/09/23 05:06:35;;;;;;;1.88;0.98;;;;;;;19.00;56.22;96742.50;10578742;27;20085;-29
2022/09/23 05:11:35;;;;;;;2.40;0.88;;;;;;;18.98;56.31;96749.25;10589151;28;20038;-29
2022/09/23 05:16:36;;;;;;;2.50;0.73;;;;;;;18.97;56.26;96758.56;10589501;28;20032;-29
2022/09/23 05:21:37;;;;;;;3.33;1.10;;;;;;;19.01;56.13;96751.81;10584401;28;20032;-29
2022/09/23 05:26:37;;;;;;;12.60;1.88;;;;;;;18.85;53.27;96752.66;10582234;28;20168;-30
2022/09/23 05:31:37;;;;;;;4.73;1.23;;;;;;;18.70;54.61;96745.06;10585528;28;20042;-29
2022/09/23 05:36:38;;;;;;;7.63;1.10;;;;;;;18.86;55.44;96750.16;10581170;28;20039;-29
2022/09/23 05:41:40;;;;;;;2.55;1.00;;;;;;;18.89;56.00;96746.72;10589754;28;20373;-29
2022/09/23 05:46:40;;;;;;;6.38;1.17;;;;;;;18.63;55.55;96743.38;10582176;28;20471;-29
2022/09/23 05:51:41;;;;;;;5.70;1.43;;;;;;;18.80;55.45;96759.44;10581046;28;20031;-29
2022/09/23 05:56:42;;;;;;;7.20;1.40;;;;;;;18.83;55.84;96744.22;10590905;27;20033;-29
2022/09/23 06:01:43;;;;;;;4.97;1.20;;;;;;;18.91;55.70;96748.44;10596872;27;20039;-29
2022/09/23 06:06:43;;;;;;;5.78;1.23;;;;;;;18.94;55.98;96745.91;10582656;27;20173;-29
2022/09/23 06:11:43;;;;;;;2.03;1.00;;;;;;;18.91;56.03;96734.91;10590948;27;20039;-30
2022/09/23 06:16:44;;;;;;;3.33;0.97;;;;;;;18.92;55.79;96726.44;10594169;27;20043;-28
2022/09/23 06:21:44;;;;;;;4.82;1.00;;;;;;;18.93;56.00;96728.13;10611065;27;20027;-29
2022/09/23 06:26:46;;;;;;;3.23;1.33;;;;;;;18.94;56.10;96725.59;10573341;27;20084;-29
2022/09/23 06:31:48;;;;;;;2.70;1.25;;;;;;;18.89;56.02;96723.91;10595234;27;20107;-30
2022/09/23 06:36:50;;;;;;;3.22;0.90;;;;;;;18.96;55.92;96743.34;10593994;27;20084;-29
2022/09/23 06:41:50;;;;;;;3.58;1.38;;;;;;;18.95;56.21;96734.91;10594994;27;20031;-30
2022/09/23 06:46:51;;;;;;;6.63;1.20;;;;;;;18.95;56.04;96723.91;10590200;27;20031;-29
2022/09/23 06:51:51;;;;;;;4.13;1.10;;;;;;;19.02;55.85;96731.47;10580728;27;20038;-30
2022/09/23 06:56:51;;;;;;;10.43;2.30;;;;;;;19.02;55.78;96725.59;10590043;27;20698;-29
2022/09/23 07:01:52;;;;;;;6.80;1.50;;;;;;;19.03;56.04;96727.28;10593968;27;20403;-29
2022/09/23 07:06:54;;;;;;;8.65;1.48;;;;;;;19.04;56.18;96728.94;10587355;27;20502;-30
2022/09/23 07:11:54;;;;;;;4.95;1.58;;;;;;;19.04;55.92;96734.03;10582807;27;20035;-29
2022/09/23 07:16:54;;;;;;;6.07;1.83;;;;;;;19.01;56.08;96736.59;10591727;27;20458;-30
2022/09/23 07:21:55;;;;;;;4.03;1.50;;;;;;;18.98;56.19;96739.97;10592458;27;20314;-29
2022/09/23 07:26:56;;;;;;;7.78;2.88;;;;;;;18.96;55.80;96734.06;10590033;27;20032;-29
2022/09/23 07:31:56;;;;;;;27.40;4.23;;;;;;;19.03;57.29;96747.56;10590997;27;20491;-29
2022/09/23 07:36:56;;;;;;;12.53;2.30;;;;;;;18.96;56.42;96756.03;10592939;27;20066;-30
2022/09/23 07:41:58;;;;;;;7.70;2.80;;;;;;;18.98;56.34;96767.00;10594992;27;20064;-29
2022/09/23 07:46:59;;;;;;;6.60;2.38;;;;;;;18.97;56.14;96763.66;10590125;27;20027;-29
2022/09/23 07:51:59;;;;;;;7.50;2.40;;;;;;;18.99;56.17;96761.13;10593242;27;20031;-29
2022/09/23 07:57:00;;;;;;;5.17;1.63;;;;;;;19.02;55.92;96753.50;10590439;27;20498;-34
2022/09/23 08:02:00;;;;;;;7.35;2.10;;;;;;;19.02;56.29;96761.94;10593029;27;20032;-29
2022/09/23 08:07:04;;;;;;;8.50;2.33;;;;;;;19.09;55.92;96760.25;10583983;27;20303;-29
2022/09/23 08:12:04;;;;;;;7.50;2.10;;;;;;;19.10;55.94;96764.47;10595207;27;20032;-29
2022/09/23 08:17:05;;;;;;;5.00;2.22;;;;;;;19.10;55.94;96762.75;10588458;27;20039;-29
2022/09/23 08:22:05;;;;;;;9.25;2.08;;;;;;;19.12;55.92;96757.69;10600637;27;20039;-29
2022/09/23 08:27:06;;;;;;;7.23;2.73;;;;;;;19.12;55.92;96762.78;10580359;27;20031;-29
2022/09/23 08:32:06;;;;;;;5.80;2.33;;;;;;;19.09;56.14;96758.53;10586629;27;20035;-29
2022/09/23 08:37:10;;;;;;;6.43;3.60;;;;;;;19.08;56.06;96759.41;10585039;27;20284;-29
2022/09/23 08:42:24;;;;;;;8.93;4.90;;;;;;;19.07;56.16;96754.31;10590849;27;20455;-29
2022/09/23 08:47:51;;;;;;;5.95;3.50;;;;;;;19.02;56.14;96750.97;10591225;27;20027;-30
2022/09/23 08:52:51;;;;;;;;;;;;;;;19.04;56.03;96755.19;10588872;27;20079;-29
2022/09/23 08:58:21;;;;;;;7.30;4.00;;;;;;;18.99;56.26;96756.06;10586411;27;19916;-29
2022/09/23 09:03:25;;;;;;;8.10;3.20;;;;;;;19.02;56.53;96750.97;10583620;27;20043;-29
2022/09/23 09:08:31;;;;;;;5.45;2.80;;;;;;;18.99;56.62;96730.69;10594132;28;20067;-29
2022/09/23 09:13:42;;;;;;;5.80;2.20;;;;;;;19.01;56.43;96739.94;10583435;28;20055;-29
2022/09/23 09:18:54;;;;;;;3.47;2.50;;;;;;;18.97;56.33;96737.41;10580591;28;20047;-29
2022/09/23 09:23:57;;;;;;;5.68;2.75;;;;;;;18.94;56.68;96729.81;10593144;28;20111;-31
2022/09/23 09:29:03;;;;;;;4.60;2.53;;;;;;;18.94;56.47;96732.38;10583224;27;20030;-30
2022/09/23 09:34:38;;;;;;;5.53;2.28;;;;;;;18.93;56.68;96738.28;10587780;27;20059;-29
2022/09/23 09:39:39;;;;;;;5.70;2.67;;;;;;;18.91;56.88;96724.78;10595648;27;20512;-29
2022/09/23 09:44:49;;;;;;;3.42;2.30;;;;;;;18.91;56.67;96733.22;10595060;27;20034;-28
2022/09/23 09:50:06;;;;;;;4.65;2.13;;;;;;;18.91;56.49;96722.22;10596855;27;20031;-29
2022/09/23 09:55:13;;;;;;;4.93;2.35;;;;;;;18.91;56.64;96717.16;10593688;27;20405;-30
2022/09/23 10:00:41;;;;;;;3.22;2.15;;;;;;;18.93;56.56;96715.47;10595693;27;20059;-29
2022/09/23 10:05:45;;;;;;;3.92;2.05;;;;;;;18.97;56.52;96712.03;10582921;27;20092;-29
2022/09/23 10:10:58;;;;;;;3.47;1.67;;;;;;;18.96;56.50;96700.22;10578161;27;20036;-29
2022/09/23 10:16:01;;;;;;;3.65;2.20;;;;;;;18.93;56.24;96708.66;10599595;27;20036;-29
2022/09/23 10:21:07;;;;;;;3.13;2.00;;;;;;;18.97;56.28;96706.97;10593518;27;20038;-29
2022/09/23 10:26:09;;;;;;;3.67;2.38;;;;;;;18.93;56.27;96697.69;10584111;27;20038;-29
2022/09/23 10:31:15;;;;;;;2.38;1.80;;;;;;;18.92;56.55;96694.31;10590811;27;20054;-29
2022/09/23 10:36:17;;;;;;;3.10;2.00;;;;;;;18.92;56.53;96693.47;10590892;27;20063;-29
2022/09/23 10:47:15;;;;;;;3.85;2.25;;;;;;;18.97;56.96;96692.63;10591018;27;20076;-29
2022/09/23 10:52:36;;;;;;;5.70;1.83;;;;;;;18.95;56.97;96675.69;10587104;27;20039;-29
2022/09/23 10:58:25;;;;;;;7.07;1.88;;;;;;;18.93;57.13;96677.41;10590418;27;20490;-29
2022/09/23 11:04:13;;;;;;;4.28;2.40;;;;;;;18.95;57.14;96679.09;10589599;27;20035;-29
2022/09/23 11:09:32;;;;;;;6.93;1.95;;;;;;;18.97;57.14;96671.44;10583589;27;20039;-29
2022/09/23 11:15:10;;;;;;;4.38;2.22;;;;;;;18.95;57.01;96673.16;10593572;27;20028;-30
2022/09/23 11:20:28;;;;;;;6.05;2.40;;;;;;;18.97;56.91;96679.06;10587272;27;20050;-29
2022/09/23 11:25:46;;;;;;;5.05;2.42;;;;;;;18.95;56.90;96673.16;10578655;27;20035;-29
2022/09/23 11:30:59;;;;;;;4.18;2.20;;;;;;;18.94;56.88;96674.00;10590422;27;20062;-29
2022/09/23 11:36:20;;;;;;;5.93;2.40;;;;;;;18.93;56.93;96659.63;10573501;27;20037;-29
2022/09/23 11:41:35;;;;;;;5.65;2.63;;;;;;;18.93;56.71;96659.63;10593591;27;20084;-29
2022/09/23 11:46:41;;;;;;;7.03;2.67;;;;;;;18.93;56.78;96644.41;10588940;27;20030;-30
2022/09/23 11:51:59;;;;;;;6.90;2.85;;;;;;;18.94;56.61;96646.09;10595312;27;20035;-29
2022/09/23 11:57:05;;;;;;;8.35;3.13;;;;;;;18.93;56.84;96634.28;10585332;27;20071;-29
2022/09/23 12:02:24;;;;;;;9.40;3.20;;;;;;;18.92;56.95;96630.88;10592636;27;20031;-31
2022/09/23 12:07:32;;;;;;;11.77;3.72;;;;;;;18.94;57.16;96625.81;10593230;27;20035;-29
2022/09/23 12:12:58;;;;;;;12.73;3.67;;;;;;;18.96;57.29;96624.09;10577578;27;20505;-30
2022/09/23 12:18:34;;;;;;;7.10;3.20;;;;;;;18.94;57.00;96618.19;10581007;27;20419;-29
2022/09/23 12:24:19;;;;;;;5.00;2.38;;;;;;;18.92;56.97;96613.13;10591328;27;20329;-29
2022/09/23 12:29:19;;;;;;;6.88;2.75;;;;;;;18.93;56.89;96613.97;10575523;27;20035;-29
2022/09/23 12:34:29;;;;;;;6.22;2.70;;;;;;;18.92;56.97;96617.38;10584023;27;20042;-29
2022/09/23 12:39:31;;;;;;;6.90;3.00;;;;;;;18.93;56.79;96613.97;10589804;27;20059;-29
2022/09/23 12:44:40;;;;;;;6.47;2.95;;;;;;;18.92;56.86;96610.59;10588881;27;20430;-29
2022/09/23 12:49:42;;;;;;;9.70;3.22;;;;;;;18.92;56.93;96609.75;10592539;27;20035;-29
2022/09/23 12:54:47;;;;;;;5.70;2.42;;;;;;;18.92;56.82;96602.16;10585351;27;20055;-29
2022/09/23 12:59:57;;;;;;;8.95;2.80;;;;;;;18.91;56.88;96598.75;10584605;27;20034;-28
2022/09/23 13:10:57;;;;;;;4.78;2.40;;;;;;;18.94;57.26;96593.69;10577578;27;20638;-29
2022/09/23 13:16:21;;;;;;;5.63;2.75;;;;;;;18.94;57.12;96590.28;10580213;28;20040;-29
2022/09/23 13:21:43;;;;;;;5.60;2.95;;;;;;;18.92;56.85;96592.00;10584089;28;20076;-29
2022/09/23 13:26:53;;;;;;;4.10;2.70;;;;;;;18.91;56.84;96581.00;10583918;28;20695;-29
2022/09/23 13:31:56;;;;;;;7.22;2.15;;;;;;;18.86;56.64;96561.56;10579755;28;20055;-29
2022/09/23 13:36:57;;;;;;;6.00;2.70;;;;;;;18.88;56.79;96564.94;10580616;28;20258;-29
2022/09/23 13:42:02;;;;;;;6.55;2.97;;;;;;;18.92;56.78;96572.53;10589807;28;20085;-30
2022/09/23 13:47:02;;;;;;;6.07;2.45;;;;;;;18.90;56.94;96573.38;10584800;28;20403;-30
2022/09/23 13:52:03;;;;;;;5.88;2.20;;;;;;;18.95;56.56;96564.06;10585617;28;20039;-29
2022/09/23 13:57:03;;;;;;;5.70;2.15;;;;;;;18.98;56.48;96556.44;10582073;28;20055;-29
2022/09/23 14:02:12;;;;;;;4.68;2.30;;;;;;;18.98;56.71;96552.22;10588570;28;20039;-28
2022/09/23 14:07:15;;;;;;;3.45;2.28;;;;;;;19.01;56.71;96543.75;10580585;28;20471;-29
2022/09/23 14:12:20;;;;;;;3.22;2.28;;;;;;;19.03;56.74;96544.59;10585526;28;20044;-30
2022/09/23 14:17:21;;;;;;;3.05;1.77;;;;;;;19.03;56.59;96544.59;10584793;27;20076;-29
2022/09/23 14:22:24;;;;;;;4.25;2.05;;;;;;;19.06;56.50;96542.03;10590488;27;20085;-30
2022/09/23 14:27:29;;;;;;;4.97;2.20;;;;;;;19.01;56.68;96536.16;10594938;27;20542;-29
2022/09/23 14:32:31;;;;;;;4.00;2.00;;;;;;;19.02;56.68;96528.50;10570218;27;20407;-29
2022/09/23 14:43:15;;;;;;;9.50;2.25;;;;;;;18.95;56.72;96515.88;10582180;27;20104;-28
2022/09/23 14:48:22;;;;;;;4.68;2.28;;;;;;;19.01;56.69;96514.13;10577757;27;20678;-30
2022/09/23 14:53:36;;;;;;;8.57;2.67;;;;;;;19.02;56.91;96517.53;10584474;27;20063;-29
2022/09/23 14:58:47;;;;;;;7.82;2.40;;;;;;;19.05;56.91;96507.34;10587432;27;20419;-30
2022/09/23 15:03:48;;;;;;;4.72;1.98;;;;;;;19.04;56.60;96498.06;10600642;27;20387;-29
2022/09/23 15:08:50;;;;;;;9.70;2.97;;;;;;;19.03;56.51;96494.69;10591130;27;20035;-29
2022/09/23 15:13:51;;;;;;;5.55;1.80;;;;;;;19.03;56.61;96499.78;10584485;27;20091;-29
2022/09/23 15:18:54;;;;;;;6.15;2.42;;;;;;;19.05;56.53;96497.19;10587445;27;20031;-29
2022/09/23 15:23:56;;;;;;;6.60;2.17;;;;;;;19.05;56.50;96492.13;10588976;27;20032;-30
2022/09/23 15:28:57;;;;;;;8.85;2.50;;;;;;;19.01;56.78;96490.47;10601952;27;20031;-28
2022/09/23 15:33:58;;;;;;;6.50;2.00;;;;;;;19.04;56.58;96492.97;10580605;27;20475;-31
2022/09/23 15:39:04;;;;;;;10.53;2.17;;;;;;;19.03;56.81;96484.53;10594104;27;20122;-29
2022/09/23 15:44:13;;;;;;;6.03;2.10;;;;;;;19.02;56.78;96482.00;10579404;27;20643;-29
2022/09/23 15:49:24;;;;;;;4.85;2.03;;;;;;;19.01;56.83;96480.31;10585212;27;20027;-28
2022/09/23 15:54:26;;;;;;;2.97;1.63;;;;;;;19.04;56.52;96480.28;10590905;27;20482;-29
2022/09/23 15:59:29;;;;;;;2.70;1.80;;;;;;;19.00;56.74;96469.31;10590953;27;20406;-29
2022/09/23 16:04:30;;;;;;;4.38;2.28;;;;;;;18.96;56.86;96466.81;10591659;27;20058;-30
2022/09/23 16:09:31;;;;;;;3.78;2.10;;;;;;;19.02;56.93;96479.47;10589457;27;20500;-30
2022/09/23 16:14:31;;;;;;;3.40;1.65;;;;;;;19.04;57.04;96482.84;10585178;27;20046;-29
2022/09/23 16:19:33;;;;;;;3.97;2.10;;;;;;;19.03;56.77;96483.69;10591207;27;20035;-30
2022/09/23 16:24:33;;;;;;;2.92;1.40;;;;;;;19.01;56.77;96487.94;10585565;27;20038;-29
2022/09/23 16:29:33;;;;;;;3.13;2.03;;;;;;;18.94;56.75;96473.59;10593564;27;20515;-29
2022/09/23 16:34:34;;;;;;;2.47;1.50;;;;;;;19.00;56.81;96478.66;10583255;27;20504;-29
2022/09/23 16:39:34;;;;;;;5.60;2.10;;;;;;;19.01;57.05;96486.22;10592636;27;20518;-29
2022/09/23 16:44:36;;;;;;;3.50;1.50;;;;;;;19.02;56.67;96482.00;10577357;27;20051;-29
2022/09/23 16:49:36;;;;;;;2.47;1.80;;;;;;;18.94;56.86;96466.00;10596408;27;20035;-29
2022/09/23 16:54:37;;;;;;;3.03;1.70;;;;;;;19.02;56.96;96482.00;10594205;27;20444;-30
2022/09/23 17:05:00;;;;;;;4.20;2.22;;;;;;;18.95;56.77;96465.13;10553029;27;20146;-29
2022/09/23 17:10:00;;;;;;;3.80;2.10;;;;;;;18.98;57.00;96470.19;10586296;27;20088;-28
2022/09/23 17:15:05;;;;;;;3.75;1.58;;;;;;;18.97;56.90;96473.56;10585997;28;20047;-29
2022/09/23 17:20:05;;;;;;;4.50;1.48;;;;;;;18.99;56.83;96470.19;10588592;28;20054;-29
2022/09/23 17:25:07;;;;;;;3.08;1.40;;;;;;;18.97;56.83;96479.50;10584319;28;20466;-30
2022/09/23 17:30:08;;;;;;;2.88;1.60;;;;;;;18.98;56.56;96481.19;10585642;28;20032;-29
2022/09/23 17:35:09;;;;;;;4.78;1.80;;;;;;;18.98;56.93;96482.88;10585439;28;20032;-30
2022/09/23 17:40:09;;;;;;;1.65;1.35;;;;;;;18.98;57.13;96481.19;10586084;28;20080;-30
2022/09/23 17:45:11;;;;;;;3.83;1.50;;;;;;;19.00;56.70;96483.72;10588547;28;20027;-29
2022/09/23 17:50:12;;;;;;;3.67;1.58;;;;;;;18.99;56.89;96482.88;10593262;27;20660;-29
2022/09/23 17:55:13;;;;;;;1.77;1.42;;;;;;;18.99;56.89;96472.72;10599253;27;20543;-32
2022/09/23 18:00:14;;;;;;;4.45;1.75;;;;;;;18.96;56.99;96472.75;10594103;27;20375;-29
2022/09/23 18:05:14;;;;;;;2.40;1.70;;;;;;;18.98;56.93;96477.78;10608069;27;20040;-29
2022/09/23 18:10:14;;;;;;;2.87;1.60;;;;;;;18.99;56.70;96492.19;10586317;27;20141;-29
2022/09/23 18:15:15;;;;;;;12.00;2.53;;;;;;;18.96;57.52;96482.03;10582472;27;20023;-29
2022/09/23 18:20:15;;;;;;;7.63;2.00;;;;;;;18.95;57.53;96477.81;10585752;27;20053;-29
2022/09/23 18:25:16;;;;;;;6.50;3.58;;;;;;;18.99;57.37;96474.44;10584266;27;20392;-32
2022/09/23 18:30:16;;;;;;;9.82;2.67;;;;;;;19.00;57.30;96468.50;10592765;27;20518;-29
2022/09/23 18:35:17;;;;;;;17.33;3.53;;;;;;;18.96;57.37;96461.75;10582747;27;20027;-30
2022/09/23 18:40:17;;;;;;;7.82;2.13;;;;;;;18.95;57.29;96457.53;10592364;27;20449;-29
2022/09/23 18:45:18;;;;;;;8.32;3.05;;;;;;;18.94;57.28;96463.44;10582504;27;20047;-29
2022/09/23 18:55:39;;;;;;;7.35;2.35;;;;;;;18.95;57.30;96465.13;10587809;27;20434;-29
2022/09/23 19:00:39;;;;;;;7.75;2.22;;;;;;;18.98;57.53;96471.03;10583746;27;20034;-30
2022/09/23 19:05:40;;;;;;;6.50;2.13;;;;;;;19.00;57.42;96466.78;10563168;27;20042;-29
2022/09/23 19:10:40;;;;;;;8.93;2.33;;;;;;;18.98;57.28;96463.41;10588280;27;20036;-29
2022/09/23 19:15:40;;;;;;;5.97;2.00;;;;;;;18.96;57.35;96462.59;10596586;27;20054;-29
2022/09/23 19:20:51;;;;;;;6.17;2.23;;;;;;;18.90;57.22;96442.34;10590518;27;20122;-29
2022/09/23 19:25:51;;;;;;;9.65;2.03;;;;;;;18.94;57.23;96440.63;10581485;27;20346;-29
2022/09/23 19:30:53;;;;;;;6.73;1.87;;;;;;;18.92;57.40;96453.31;10602880;27;20383;-29
2022/09/23 19:35:54;;;;;;;4.05;1.65;;;;;;;18.95;57.14;96458.38;10577948;27;20035;-29
2022/09/23 19:40:54;;;;;;;4.73;1.83;;;;;;;18.92;57.96;96449.94;10579067;27;20040;-29
2022/09/23 19:45:55;;;;;;;4.63;2.03;;;;;;;18.96;57.80;96446.53;10593673;27;20039;-29
2022/09/23 19:50:55;;;;;;;7.05;1.98;;;;;;;18.94;57.50;96443.16;10592733;27;20040;-30
2022/09/23 19:55:56;;;;;;;5.00;2.40;;;;;;;18.95;57.31;96450.78;10589687;27;20032;-29
2022/09/23 20:00:56;;;;;;;4.80;1.87;;;;;;;18.96;57.30;96451.59;10579151;27;20044;-29
2022/09/23 20:05:57;;;;;;;4.50;2.15;;;;;;;18.97;57.30;96435.50;10590008;27;20357;-30
2022/09/23 20:10:57;;;;;;;3.30;1.60;;;;;;;18.95;57.15;96429.63;10586301;27;20028;-29
2022/09/23 20:15:57;;;;;;;4.67;1.77;;;;;;;18.94;57.33;96423.72;10597258;27;20328;-31
2022/09/23 20:20:58;;;;;;;4.80;2.00;;;;;;;18.94;57.65;96436.41;10595000;27;20218;-29
2022/09/23 20:31:22;;;;;;;3.42;1.55;;;;;;;18.94;57.54;96435.53;10592322;27;20061;-29
2022/09/23 20:36:24;;;;;;;3.60;1.23;;;;;;;18.93;57.33;96437.22;10586112;27;20043;-31
2022/09/23 20:41:26;;;;;;;2.45;1.40;;;;;;;18.93;57.09;96436.41;10582344;27;20031;-29
2022/09/23 20:46:27;;;;;;;3.95;1.98;;;;;;;18.95;57.27;96442.31;10580153;27;20027;-30
2022/09/23 20:51:28;;;;;;;4.68;2.08;;;;;;;18.94;57.12;96445.69;10581774;27;20421;-31
2022/09/23 20:56:28;;;;;;;3.83;1.75;;;;;;;18.92;57.31;96450.75;10588002;27;20038;-30
2022/09/23 21:01:33;;;;;;;3.63;1.80;;;;;;;18.91;57.15;96438.13;10587017;27;20039;-29
2022/09/23 21:06:35;;;;;;;3.88;1.60;;;;;;;18.92;57.22;96434.72;10580554;27;20031;-30
2022/09/23 21:11:35;;;;;;;2.97;1.48;;;;;;;18.97;57.10;96443.13;10589709;27;20031;-29
2022/09/23 21:16:36;;;;;;;2.33;1.50;;;;;;;18.94;57.44;96443.16;10590326;28;20024;-29
2022/09/23 21:21:36;;;;;;;4.70;1.43;;;;;;;18.94;57.68;96444.00;10577797;28;20047;-29
2022/09/23 21:26:37;;;;;;;3.10;1.40;;;;;;;18.93;57.20;96451.63;10588676;27;20288;-30
2022/09/23 21:31:37;;;;;;;3.57;1.60;;;;;;;18.93;57.28;96446.56;10598587;27;20610;-29
2022/09/23 21:36:43;;;;;;;2.20;1.50;;;;;;;18.94;57.15;96428.78;10602880;27;20284;-29
2022/09/23 21:41:43;;;;;;;3.38;1.50;;;;;;;18.92;57.24;96440.63;10587150;27;20113;-29
2022/09/23 21:46:44;;;;;;;2.28;1.40;;;;;;;18.91;57.33;96433.03;10593261;27;20122;-29
2022/09/23 21:51:44;;;;;;;3.03;2.10;;;;;;;18.92;57.53;96439.78;10569575;27;20039;-28
2022/09/23 21:56:45;;;;;;;2.60;1.60;;;;;;;18.91;57.39;96438.13;10602512;27;20323;-29
2022/09/23 22:01:45;;;;;;;1.83;1.38;;;;;;;18.92;57.42;96434.72;10588328;27;20080;-29
2022/09/23 22:06:45;;;;;;;3.10;1.47;;;;;;;18.91;57.22;96443.19;10592269;27;20031;-29
2022/09/23 22:12:06;;;;;;;2.53;1.52;;;;;;;18.90;57.27;96438.94;10587882;27;20027;-29
2022/09/23 22:17:09;;;;;;;3.05;1.35;;;;;;;18.87;57.03;96432.22;10592588;27;20019;-29
2022/09/23 22:22:12;;;;;;;2.17;1.30;;;;;;;18.91;57.25;96438.13;10581153;27;20538;-29
2022/09/23 22:27:15;;;;;;;3.53;1.33;;;;;;;18.92;57.17;96437.25;10593315;27;20019;-29
2022/09/23 22:37:35;;;;;;;3.35;1.67;;;;;;;18.89;57.40;96422.91;10594339;27;20121;-29
2022/09/23 22:42:36;;;;;;;3.25;1.35;;;;;;;18.91;57.50;96415.28;10587329;27;20039;-29
2022/09/23 22:47:38;;;;;;;2.40;1.30;;;;;;;18.90;57.33;96414.44;10593860;27;20494;-29
2022/09/23 22:52:39;;;;;;;1.70;1.10;;;;;;;18.91;57.24;96407.69;10590346;27;20084;-30
2022/09/23 22:57:39;;;;;;;3.00;1.30;;;;;;;18.86;57.13;96396.69;10594996;27;20066;-29
2022/09/23 23:02:41;;;;;;;3.38;1.30;;;;;;;18.92;57.25;96401.75;10589982;27;20055;-29
2022/09/23 23:07:41;;;;;;;2.22;1.40;;;;;;;18.91;57.19;96392.44;10603121;27;20408;-28
2022/09/23 23:12:41;;;;;;;1.87;1.50;;;;;;;18.90;57.13;96395.81;10590436;27;20339;-29
2022/09/23 23:17:42;;;;;;;3.20;1.60;;;;;;;18.91;57.08;96397.53;10594641;27;20023;-29
2022/09/23 23:22:43;;;;;;;1.40;1.08;;;;;;;18.88;57.56;96388.25;10580275;27;20791;-29
2022/09/23 23:27:43;;;;;;;1.30;1.20;;;;;;;18.88;57.37;96388.25;10583087;27;20048;-29
2022/09/23 23:32:43;;;;;;;3.33;1.30;;;;;;;18.88;57.40;96379.78;10589861;27;20031;-29
2022/09/23 23:37:44;;;;;;;2.27;1.20;;;;;;;18.86;57.38;96366.28;10593174;27;20054;-29
2022/09/23 23:42:44;;;;;;;2.87;1.30;;;;;;;18.89;57.39;96374.69;10581307;27;20796;-29
2022/09/23 23:47:45;;;;;;;4.60;1.40;;;;;;;18.88;57.27;96374.69;10588988;27;20031;-29
2022/09/23 23:52:45;;;;;;;1.92;1.50;;;;;;;18.89;57.44;96384.00;10591918;27;20406;-30
2022/09/23 23:57:45;;;;;;;1.97;1.23;;;;;;;18.87;57.37;96386.56;10580456;27;20035;-29
